Zagreb — 9AA5910 — position and weather

sailwx.info

Track history (hours):
 
Tides and Currents Weather Stations Pressure Air Temp Water Temp Dewpoint Dewpoint Depression Visibility Wind Speed Wind Dir Waves Ship Positions

Zagreb

Last reported at 2015-Feb-28 00:33 UTC. Time now 2015-Feb-28 00:45 UTC.
Position N 52°25' E 004°49'.

Length 229 m; draft 13.2 m.

Type: Cargo ship. MMSI: 238249000.

Date/timePositionNaut miles runAvg speedWind from/ knotsBaromVisibWave heightAir tempDewpointWater temp
2015-Feb-28 00:33N 52°25' E 004°49'0 0.0
2015-Feb-27 23:33N 52°25' E 004°49'0 0.1
2015-Feb-27 22:34N 52°25' E 004°49'5 4.6
2015-Feb-27 21:33N 52°26' E 004°42'4 3.7
2015-Feb-27 20:34N 52°28' E 004°36'1 1.0
2015-Feb-27 19:31N 52°28' E 004°35'0 0.0
2015-Feb-27 18:31N 52°28' E 004°35'0 0.0
2015-Feb-27 17:31N 52°28' E 004°35'0 0.0
2015-Feb-27 16:31N 52°28' E 004°35'0 0.0
2015-Feb-27 15:31N 52°28' E 004°35'0 0.0
2015-Feb-27 14:31N 52°28' E 004°35'0 0.0
2015-Feb-27 13:28N 52°28' E 004°35'0 0.0
2015-Feb-27 12:31N 52°28' E 004°35'0 0.0
2015-Feb-27 11:31N 52°28' E 004°35'0 0.0
2015-Feb-27 10:31N 52°28' E 004°35'0 0.0
2015-Feb-27 09:31N 52°28' E 004°35'0 0.0
2015-Feb-27 08:31N 52°28' E 004°35'0 0.0
2015-Feb-27 07:31N 52°28' E 004°35'0 0.0
2015-Feb-27 06:31N 52°28' E 004°35'0 0.0
2015-Feb-27 05:31N 52°28' E 004°35'0 0.0
2015-Feb-27 04:31N 52°28' E 004°35'0 0.0
2015-Feb-27 03:31N 52°28' E 004°35'0 0.0
2015-Feb-27 02:31N 52°28' E 004°35'0 0.0
2015-Feb-27 01:31N 52°28' E 004°35'2 2.5
2015-Feb-27 00:34N 52°28' E 004°31'10 9.8
2015-Feb-26 23:33N 52°29' E 004°15'6 5.8
2015-Feb-26 22:33N 52°29' E 004°05'6 6.0
2015-Feb-26 21:33N 52°27' E 003°56'1 1.0
2015-Feb-26 20:31N 52°26' E 003°56'0 0.1
2015-Feb-26 19:25N 52°26' E 003°56'0 0.1
2015-Feb-26 18:25N 52°26' E 003°56'0 0.0
2015-Feb-26 17:31N 52°26' E 003°56'0 0.2
2015-Feb-26 16:22N 52°25' E 003°56'0 0.0
2015-Feb-26 15:28N 52°25' E 003°56'0 0.1
2015-Feb-26 14:28N 52°25' E 003°56'0 0.2
2015-Feb-26 13:31N 52°26' E 003°56'0 0.1
2015-Feb-26 12:31N 52°26' E 003°56'0 0.0
2015-Feb-26 11:19N 52°26' E 003°56'0 0.0
2015-Feb-26 10:19N 52°26' E 003°56'0 0.0
2015-Feb-26 09:25N 52°26' E 003°56'0 0.0
2015-Feb-26 08:31N 52°26' E 003°56'0 0.0
2015-Feb-26 07:13N 52°26' E 003°56'0 0.0
2015-Feb-26 06:28N 52°26' E 003°56'0 0.0
2015-Feb-26 05:25N 52°26' E 003°56'0 0.2
2015-Feb-26 04:31N 52°25' E 003°56'0 0.1
2015-Feb-26 03:31N 52°25' E 003°56'0 0.0
2015-Feb-26 02:31N 52°25' E 003°56'0 0.0
2015-Feb-26 01:28N 52°25' E 003°56'0 0.0
2015-Feb-26 00:31N 52°25' E 003°56'0 0.2
2015-Feb-25 23:31N 52°26' E 003°56'0 0.1
2015-Feb-25 22:31N 52°26' E 003°56'0 0.0
2015-Feb-25 20:31N 52°26' E 003°56'0 0.0
2015-Feb-25 19:25N 52°26' E 003°56'0 0.0
2015-Feb-25 18:31N 52°26' E 003°56'0 0.1
2015-Feb-25 17:28N 52°26' E 003°56'0 0.1
2015-Feb-25 16:31N 52°25' E 003°56'0 0.1
2015-Feb-25 15:31N 52°25' E 003°56'0 0.0
2015-Feb-25 14:31N 52°25' E 003°56'0 0.0
2015-Feb-25 13:31N 52°25' E 003°56'0 0.0
2015-Feb-25 12:28N 52°25' E 003°56'0 0.2
2015-Feb-25 11:31N 52°26' E 003°56'0 0.1
2015-Feb-25 10:28N 52°26' E 003°56'0 0.0
2015-Feb-25 08:07N 52°26' E 003°56'0 0.0
2015-Feb-25 07:28N 52°26' E 003°56'0 0.0
2015-Feb-25 06:31N 52°26' E 003°56'0 0.2
2015-Feb-25 05:31N 52°25' E 003°56'0 0.1
2015-Feb-25 04:31N 52°25' E 003°56'0 0.1
2015-Feb-25 03:31N 52°25' E 003°56'0 0.0
2015-Feb-25 02:31N 52°25' E 003°56'0 0.1
2015-Feb-25 01:33N 52°25' E 003°56'3 2.7
2015-Feb-25 00:32N 52°27' E 003°52'59 9.6
2015-Feb-24 18:22N 53°22' E 004°31'3611.2
2015-Feb-24 15:11N 53°55' E 004°49'711.0
2015-Feb-24 14:33N 54°02' E 004°53'1110.9
2015-Feb-24 13:33N 54°12' E 005°01'21410.0
2015-Feb-23 16:06N 57°15' E 008°17'76 9.7
2015-Feb-23 08:19N 57°50' E 010°22'810.7
2015-Feb-23 07:34N 57°50' E 010°37'9 9.2
2015-Feb-23 06:33N 57°43' E 010°48'9 9.1
2015-Feb-23 05:33N 57°35' E 010°57'1211.7
2015-Feb-23 04:33N 57°31' E 011°17'1111.1
2015-Feb-23 03:33N 57°22' E 011°29'1212.2
2015-Feb-23 02:34N 57°10' E 011°37'1312.8
2015-Feb-23 01:33N 56°58' E 011°45'1212.0
2015-Feb-23 00:34N 56°47' E 011°53'1212.0
2015-Feb-22 23:32N 56°36' E 011°44'12110.0
2015-Feb-22 11:31N 54°39' E 010°53'1010.5
2015-Feb-22 10:33N 54°36' E 011°09'1110.5
2015-Feb-22 09:34N 54°32' E 011°26'1110.7
2015-Feb-22 08:33N 54°28' E 011°43'1110.6
2015-Feb-22 07:33N 54°27' E 012°01'8 8.1
2015-Feb-22 06:33N 54°30' E 012°14'8 7.9
2015-Feb-22 05:33N 54°38' E 012°19'7 7.4
2015-Feb-22 04:33N 54°42' E 012°30'10 7.7
2015-Feb-22 03:19N 54°47' E 012°44'5411.1
2015-Feb-21 22:25N 55°09' E 014°11'1311.0
2015-Feb-21 21:12N 55°19' E 014°26'710.5
2015-Feb-21 20:32N 55°25' E 014°33'  
Track history (hours):
 
Tides and Currents Weather Stations Pressure Air Temp Water Temp Dewpoint Dewpoint Depression Visibility Wind Speed Wind Dir Waves Ship Positions

Zagreb

Last reported at 2015-Feb-28 00:33 UTC. Time now 2015-Feb-28 00:45 UTC.
Position N 52°25' E 004°49'.

Length 229 m; draft 13.2 m.

Type: Cargo ship. MMSI: 238249000.

Date/timePositionNaut miles runAvg speedWind from/ knotsBaromVisibWave heightAir tempDewpointWater temp
2015-Feb-28 00:33N 52°25' E 004°49'0 0.0
2015-Feb-27 23:33N 52°25' E 004°49'0 0.1
2015-Feb-27 22:34N 52°25' E 004°49'5 4.6
2015-Feb-27 21:33N 52°26' E 004°42'4 3.7
2015-Feb-27 20:34N 52°28' E 004°36'1 1.0
2015-Feb-27 19:31N 52°28' E 004°35'0 0.0
2015-Feb-27 18:31N 52°28' E 004°35'0 0.0
2015-Feb-27 17:31N 52°28' E 004°35'0 0.0
2015-Feb-27 16:31N 52°28' E 004°35'0 0.0
2015-Feb-27 15:31N 52°28' E 004°35'0 0.0
2015-Feb-27 14:31N 52°28' E 004°35'0 0.0
2015-Feb-27 13:28N 52°28' E 004°35'0 0.0
2015-Feb-27 12:31N 52°28' E 004°35'0 0.0
2015-Feb-27 11:31N 52°28' E 004°35'0 0.0
2015-Feb-27 10:31N 52°28' E 004°35'0 0.0
2015-Feb-27 09:31N 52°28' E 004°35'0 0.0
2015-Feb-27 08:31N 52°28' E 004°35'0 0.0
2015-Feb-27 07:31N 52°28' E 004°35'0 0.0
2015-Feb-27 06:31N 52°28' E 004°35'0 0.0
2015-Feb-27 05:31N 52°28' E 004°35'0 0.0
2015-Feb-27 04:31N 52°28' E 004°35'0 0.0
2015-Feb-27 03:31N 52°28' E 004°35'0 0.0
2015-Feb-27 02:31N 52°28' E 004°35'0 0.0
2015-Feb-27 01:31N 52°28' E 004°35'2 2.5
2015-Feb-27 00:34N 52°28' E 004°31'10 9.8
2015-Feb-26 23:33N 52°29' E 004°15'6 5.8
2015-Feb-26 22:33N 52°29' E 004°05'6 6.0
2015-Feb-26 21:33N 52°27' E 003°56'1 1.0
2015-Feb-26 20:31N 52°26' E 003°56'0 0.1
2015-Feb-26 19:25N 52°26' E 003°56'0 0.1
2015-Feb-26 18:25N 52°26' E 003°56'0 0.0
2015-Feb-26 17:31N 52°26' E 003°56'0 0.2
2015-Feb-26 16:22N 52°25' E 003°56'0 0.0
2015-Feb-26 15:28N 52°25' E 003°56'0 0.1
2015-Feb-26 14:28N 52°25' E 003°56'0 0.2
2015-Feb-26 13:31N 52°26' E 003°56'0 0.1
2015-Feb-26 12:31N 52°26' E 003°56'0 0.0
2015-Feb-26 11:19N 52°26' E 003°56'0 0.0
2015-Feb-26 10:19N 52°26' E 003°56'0 0.0
2015-Feb-26 09:25N 52°26' E 003°56'0 0.0
2015-Feb-26 08:31N 52°26' E 003°56'0 0.0
2015-Feb-26 07:13N 52°26' E 003°56'0 0.0
2015-Feb-26 06:28N 52°26' E 003°56'0 0.0
2015-Feb-26 05:25N 52°26' E 003°56'0 0.2
2015-Feb-26 04:31N 52°25' E 003°56'0 0.1
2015-Feb-26 03:31N 52°25' E 003°56'0 0.0
2015-Feb-26 02:31N 52°25' E 003°56'0 0.0
2015-Feb-26 01:28N 52°25' E 003°56'0 0.0
2015-Feb-26 00:31N 52°25' E 003°56'0 0.2
2015-Feb-25 23:31N 52°26' E 003°56'0 0.1
2015-Feb-25 22:31N 52°26' E 003°56'0 0.0
2015-Feb-25 20:31N 52°26' E 003°56'0 0.0
2015-Feb-25 19:25N 52°26' E 003°56'0 0.0
2015-Feb-25 18:31N 52°26' E 003°56'0 0.1
2015-Feb-25 17:28N 52°26' E 003°56'0 0.1
2015-Feb-25 16:31N 52°25' E 003°56'0 0.1
2015-Feb-25 15:31N 52°25' E 003°56'0 0.0
2015-Feb-25 14:31N 52°25' E 003°56'0 0.0
2015-Feb-25 13:31N 52°25' E 003°56'0 0.0
2015-Feb-25 12:28N 52°25' E 003°56'0 0.2
2015-Feb-25 11:31N 52°26' E 003°56'0 0.1
2015-Feb-25 10:28N 52°26' E 003°56'0 0.0
2015-Feb-25 08:07N 52°26' E 003°56'0 0.0
2015-Feb-25 07:28N 52°26' E 003°56'0 0.0
2015-Feb-25 06:31N 52°26' E 003°56'0 0.2
2015-Feb-25 05:31N 52°25' E 003°56'0 0.1
2015-Feb-25 04:31N 52°25' E 003°56'0 0.1
2015-Feb-25 03:31N 52°25' E 003°56'0 0.0
2015-Feb-25 02:31N 52°25' E 003°56'0 0.1
2015-Feb-25 01:33N 52°25' E 003°56'3 2.7
2015-Feb-25 00:32N 52°27' E 003°52'59 9.6
2015-Feb-24 18:22N 53°22' E 004°31'3611.2
2015-Feb-24 15:11N 53°55' E 004°49'711.0
2015-Feb-24 14:33N 54°02' E 004°53'1110.9
2015-Feb-24 13:33N 54°12' E 005°01'21410.0
2015-Feb-23 16:06N 57°15' E 008°17'76 9.7
2015-Feb-23 08:19N 57°50' E 010°22'810.7
2015-Feb-23 07:34N 57°50' E 010°37'9 9.2
2015-Feb-23 06:33N 57°43' E 010°48'9 9.1
2015-Feb-23 05:33N 57°35' E 010°57'1211.7
2015-Feb-23 04:33N 57°31' E 011°17'1111.1
2015-Feb-23 03:33N 57°22' E 011°29'1212.2
2015-Feb-23 02:34N 57°10' E 011°37'1312.8
2015-Feb-23 01:33N 56°58' E 011°45'1212.0
2015-Feb-23 00:34N 56°47' E 011°53'1212.0
2015-Feb-22 23:32N 56°36' E 011°44'12110.0
2015-Feb-22 11:31N 54°39' E 010°53'1010.5
2015-Feb-22 10:33N 54°36' E 011°09'1110.5
2015-Feb-22 09:34N 54°32' E 011°26'1110.7
2015-Feb-22 08:33N 54°28' E 011°43'1110.6
2015-Feb-22 07:33N 54°27' E 012°01'8 8.1
2015-Feb-22 06:33N 54°30' E 012°14'8 7.9
2015-Feb-22 05:33N 54°38' E 012°19'7 7.4
2015-Feb-22 04:33N 54°42' E 012°30'10 7.7
2015-Feb-22 03:19N 54°47' E 012°44'5411.1
2015-Feb-21 22:25N 55°09' E 014°11'1311.0
2015-Feb-21 21:12N 55°19' E 014°26'710.5
2015-Feb-21 20:32N 55°25' E 014°33'  

Dump ship's entire track history